PWSweather.com
Personal Weather Stations
Station Observations
SPARKSRC
St. Petersburg, FL 33716

St. Petersburg, FL 33716

Lat: 27.876101, Lon: -82.657194

Elevation: 13

Station Type: Zephyr PWS-1000TD

Latest ConditionsUpdated 9:35:01 PM EST Wednesday, Nov 26, 2014
Currently Today's Max Today's Min Today's Average
Temperature 53.1°F11.7°C 72.3°F22.4°C 52.5°F11.4°C 60.1°F15.6°C
Dew Point 49.3°F9.6°C 72.1°F22.3°C 47.1°F8.4°C 56.3°F13.5°C
Winds 1.6 mph NW2.6 kmh NW 19.0 mph N30.6 kmh N - 7.7 mph 12.4 kmh
Wind Gusts 3.8 mph6.1 kmh 30.4 mph48.9 kmh - -
Humidity 87% 99% 63% 88%
Pressure 30.18 in1022.0 mb 30.18 in1022.0 mb 29.78 in1008.5 mb -
Precipitation - 0.35 in8.9 mm - -
Hour Temp Dew Point Humidity Winds Wind Gusts Pressure Precip Precip Rate Daily Precip Total
09:35 PM 53.1°F11.7°C 49.3°F9.6°C 87% 1.6 mph NW2.6 kmh NW 3.8 mph6.1 kmh 30.18 in1022.0 mb 0.00 in0.0 mm 0.00 in/hr0.0 mm/hr 0.35 in8.9 mm
09:30 PM 52.9°F11.6°C 49.4°F9.7°C 88% 1.6 mph NW2.6 kmh NW 3.8 mph6.1 kmh 30.18 in1022.0 mb 0.00 in0.0 mm 0.00 in/hr0.0 mm/hr 0.35 in8.9 mm
09:25 PM 52.7°F11.5°C 48.9°F9.4°C 87% 2.2 mph NNW3.5 kmh NNW 3.1 mph5.0 kmh 30.18 in1022.0 mb 0.00 in0.0 mm 0.00 in/hr0.0 mm/hr 0.35 in8.9 mm
09:20 PM 52.5°F11.4°C 48.8°F9.3°C 87% 1.6 mph NNW2.6 kmh NNW 3.1 mph5.0 kmh 30.18 in1022.0 mb 0.00 in0.0 mm 0.00 in/hr0.0 mm/hr 0.35 in8.9 mm
09:15 PM 52.5°F11.4°C 48.5°F9.2°C 86% Calm Calm 2.2 mph3.5 kmh 30.18 in1022.0 mb 0.00 in0.0 mm 0.00 in/hr0.0 mm/hr 0.35 in8.9 mm
09:10 PM 52.5°F11.4°C 48.5°F9.2°C 86% 0.7 mph NW1.1 kmh NW 2.2 mph3.5 kmh 30.17 in1021.7 mb 0.00 in0.0 mm 0.00 in/hr0.0 mm/hr 0.35 in8.9 mm
09:05 PM 52.9°F11.6°C 48.5°F9.2°C 85% Calm Calm 2.2 mph3.5 kmh 30.17 in1021.7 mb 0.00 in0.0 mm 0.00 in/hr0.0 mm/hr 0.35 in8.9 mm
09:00 PM 52.9°F11.6°C 48.5°F9.2°C 85% Calm Calm 2.2 mph3.5 kmh 30.17 in1021.7 mb 0.00 in0.0 mm 0.00 in/hr0.0 mm/hr 0.35 in8.9 mm
08:55 PM 53.1°F11.7°C 48.0°F8.9°C 83% 0.7 mph NW1.1 kmh NW 2.2 mph3.5 kmh 30.18 in1022.0 mb 0.00 in0.0 mm 0.00 in/hr0.0 mm/hr 0.35 in8.9 mm
08:50 PM 53.4°F11.9°C 48.1°F8.9°C 82% Calm Calm 0.7 mph1.1 kmh 30.18 in1022.0 mb 0.00 in0.0 mm 0.00 in/hr0.0 mm/hr 0.35 in8.9 mm
08:45 PM 54.0°F12.2°C 48.6°F9.2°C 82% Calm Calm 0.7 mph1.1 kmh 30.17 in1021.7 mb 0.00 in0.0 mm 0.00 in/hr0.0 mm/hr 0.35 in8.9 mm
08:40 PM 54.1°F12.3°C 48.4°F9.1°C 81% Calm Calm 2.2 mph3.5 kmh 30.17 in1021.7 mb 0.00 in0.0 mm 0.00 in/hr0.0 mm/hr 0.35 in8.9 mm
08:35 PM 54.5°F12.5°C 48.5°F9.2°C 80% Calm Calm 3.1 mph5.0 kmh 30.17 in1021.7 mb 0.00 in0.0 mm 0.00 in/hr0.0 mm/hr 0.35 in8.9 mm
08:30 PM 54.7°F12.6°C 48.6°F9.2°C 80% Calm Calm 3.8 mph6.1 kmh 30.17 in1021.7 mb 0.00 in0.0 mm 0.00 in/hr0.0 mm/hr 0.35 in8.9 mm
08:25 PM 54.9°F12.7°C 48.5°F9.2°C 79% 0.7 mph NNW1.1 kmh NNW 3.8 mph6.1 kmh 30.17 in1021.7 mb 0.00 in0.0 mm 0.00 in/hr0.0 mm/hr 0.35 in8.9 mm
08:20 PM 54.9°F12.7°C 48.5°F9.2°C 79% 2.2 mph NNW3.5 kmh NNW 3.1 mph5.0 kmh 30.17 in1021.7 mb 0.00 in0.0 mm 0.00 in/hr0.0 mm/hr 0.35 in8.9 mm
08:15 PM 55.0°F12.8°C 48.3°F9.1°C 78% 1.6 mph NNW2.6 kmh NNW 4.5 mph7.2 kmh 30.17 in1021.7 mb 0.00 in0.0 mm 0.00 in/hr0.0 mm/hr 0.35 in8.9 mm
08:10 PM 55.0°F12.8°C 48.3°F9.1°C 78% 0.7 mph NNW1.1 kmh NNW 4.5 mph7.2 kmh 30.17 in1021.7 mb 0.00 in0.0 mm 0.00 in/hr0.0 mm/hr 0.35 in8.9 mm
08:05 PM 55.0°F12.8°C 48.3°F9.1°C 78% 3.1 mph NNW5.0 kmh NNW 4.5 mph7.2 kmh 30.16 in1021.3 mb 0.00 in0.0 mm 0.00 in/hr0.0 mm/hr 0.35 in8.9 mm
08:00 PM 54.9°F12.7°C 48.1°F8.9°C 78% 2.2 mph NW3.5 kmh NW 4.5 mph7.2 kmh 30.16 in1021.3 mb 0.00 in0.0 mm 0.00 in/hr0.0 mm/hr 0.35 in8.9 mm
07:55 PM 55.0°F12.8°C 48.0°F8.9°C 77% 1.6 mph NW2.6 kmh NW 6.9 mph11.1 kmh 30.16 in1021.3 mb 0.00 in0.0 mm 0.00 in/hr0.0 mm/hr 0.35 in8.9 mm
07:50 PM 55.0°F12.8°C 48.0°F8.9°C 77% 3.1 mph NW5.0 kmh NW 6.9 mph11.1 kmh 30.16 in1021.3 mb 0.00 in0.0 mm 0.00 in/hr0.0 mm/hr 0.35 in8.9 mm
07:45 PM 54.9°F12.7°C 47.8°F8.8°C 77% 2.2 mph NW3.5 kmh NW 5.4 mph8.7 kmh 30.16 in1021.3 mb 0.00 in0.0 mm 0.00 in/hr0.0 mm/hr 0.35 in8.9 mm
07:40 PM 54.7°F12.6°C 47.6°F8.7°C 77% 2.2 mph NW3.5 kmh NW 4.5 mph7.2 kmh 30.16 in1021.3 mb 0.00 in0.0 mm 0.00 in/hr0.0 mm/hr 0.35 in8.9 mm
07:35 PM 54.7°F12.6°C 47.6°F8.7°C 77% 2.2 mph NW3.5 kmh NW 4.5 mph7.2 kmh 30.16 in1021.3 mb 0.00 in0.0 mm 0.00 in/hr0.0 mm/hr 0.35 in8.9 mm
07:30 PM 54.7°F12.6°C 47.6°F8.7°C 77% 0.7 mph NW1.1 kmh NW 4.5 mph7.2 kmh 30.16 in1021.3 mb 0.00 in0.0 mm 0.00 in/hr0.0 mm/hr 0.35 in8.9 mm
07:25 PM 54.7°F12.6°C 47.3°F8.5°C 76% 0.7 mph NW1.1 kmh NW 4.5 mph7.2 kmh 30.16 in1021.3 mb 0.00 in0.0 mm 0.00 in/hr0.0 mm/hr 0.35 in8.9 mm
07:20 PM 54.7°F12.6°C 47.3°F8.5°C 76% 1.6 mph WNW2.6 kmh WNW 4.5 mph7.2 kmh 30.16 in1021.3 mb 0.00 in0.0 mm 0.00 in/hr0.0 mm/hr 0.35 in8.9 mm
07:15 PM 54.9°F12.7°C 47.1°F8.4°C 75% 0.7 mph WNW1.1 kmh WNW 4.5 mph7.2 kmh 30.16 in1021.3 mb 0.00 in0.0 mm 0.00 in/hr0.0 mm/hr 0.35 in8.9 mm
07:10 PM 55.0°F12.8°C 47.3°F8.5°C 75% 1.6 mph WNW2.6 kmh WNW 4.5 mph7.2 kmh 30.15 in1021.0 mb 0.00 in0.0 mm 0.00 in/hr0.0 mm/hr 0.35 in8.9 mm
07:05 PM 55.4°F13.0°C 47.3°F8.5°C 74% 1.6 mph WNW2.6 kmh WNW 4.5 mph7.2 kmh 30.16 in1021.3 mb 0.00 in0.0 mm 0.00 in/hr0.0 mm/hr 0.35 in8.9 mm
07:00 PM 55.4°F13.0°C 47.6°F8.7°C 75% 0.7 mph NW1.1 kmh NW 4.5 mph7.2 kmh 30.16 in1021.3 mb 0.00 in0.0 mm 0.00 in/hr0.0 mm/hr 0.35 in8.9 mm
06:55 PM 55.4°F13.0°C 47.6°F8.7°C 75% 2.2 mph NW3.5 kmh NW 4.5 mph7.2 kmh 30.16 in1021.3 mb 0.00 in0.0 mm 0.00 in/hr0.0 mm/hr 0.35 in8.9 mm
06:50 PM 55.4°F13.0°C 47.6°F8.7°C 75% 2.2 mph WNW3.5 kmh WNW 4.5 mph7.2 kmh 30.16 in1021.3 mb 0.00 in0.0 mm 0.00 in/hr0.0 mm/hr 0.35 in8.9 mm
06:45 PM 55.6°F13.1°C 47.8°F8.8°C 75% 2.2 mph WNW3.5 kmh WNW 4.5 mph7.2 kmh 30.15 in1021.0 mb 0.00 in0.0 mm 0.00 in/hr0.0 mm/hr 0.35 in8.9 mm
06:40 PM 55.8°F13.2°C 48.0°F8.9°C 75% 2.2 mph NW3.5 kmh NW 4.5 mph7.2 kmh 30.16 in1021.3 mb 0.00 in0.0 mm 0.00 in/hr0.0 mm/hr 0.35 in8.9 mm
06:35 PM 55.9°F13.3°C 47.8°F8.8°C 74% 1.6 mph WNW2.6 kmh WNW 4.5 mph7.2 kmh 30.15 in1021.0 mb 0.00 in0.0 mm 0.00 in/hr0.0 mm/hr 0.35 in8.9 mm
06:30 PM 56.1°F13.4°C 48.0°F8.9°C 74% 2.2 mph WNW3.5 kmh WNW 4.5 mph7.2 kmh 30.15 in1021.0 mb 0.00 in0.0 mm 0.00 in/hr0.0 mm/hr 0.35 in8.9 mm
06:25 PM 56.5°F13.6°C 48.3°F9.1°C 74% 2.2 mph WNW3.5 kmh WNW 4.5 mph7.2 kmh 30.15 in1021.0 mb 0.00 in0.0 mm 0.00 in/hr0.0 mm/hr 0.35 in8.9 mm
06:20 PM 56.8°F13.8°C 48.7°F9.3°C 74% 2.2 mph NW3.5 kmh NW 5.4 mph8.7 kmh 30.15 in1021.0 mb 0.00 in0.0 mm 0.00 in/hr0.0 mm/hr 0.35 in8.9 mm
06:15 PM 56.8°F13.8°C 48.3°F9.1°C 73% 2.2 mph NW3.5 kmh NW 7.6 mph12.2 kmh 30.15 in1021.0 mb 0.00 in0.0 mm 0.00 in/hr0.0 mm/hr 0.35 in8.9 mm
06:10 PM 57.2°F14.0°C 48.6°F9.2°C 73% 2.2 mph NW3.5 kmh NW 7.6 mph12.2 kmh 30.15 in1021.0 mb 0.00 in0.0 mm 0.00 in/hr0.0 mm/hr 0.35 in8.9 mm
06:05 PM 57.6°F14.2°C 49.0°F9.4°C 73% 1.6 mph NW2.6 kmh NW 6.0 mph9.7 kmh 30.14 in1020.7 mb 0.00 in0.0 mm 0.00 in/hr0.0 mm/hr 0.35 in8.9 mm
06:00 PM 57.7°F14.3°C 48.8°F9.3°C 72% 0.7 mph NW1.1 kmh NW 4.5 mph7.2 kmh 30.14 in1020.7 mb 0.00 in0.0 mm 0.00 in/hr0.0 mm/hr 0.35 in8.9 mm
05:55 PM 57.7°F14.3°C 48.8°F9.3°C 72% 3.1 mph NW5.0 kmh NW 6.9 mph11.1 kmh 30.14 in1020.7 mb 0.00 in0.0 mm 0.00 in/hr0.0 mm/hr 0.35 in8.9 mm
05:50 PM 58.1°F14.5°C 48.8°F9.3°C 71% 2.2 mph NW3.5 kmh NW 6.9 mph11.1 kmh 30.14 in1020.7 mb 0.00 in0.0 mm 0.00 in/hr0.0 mm/hr 0.35 in8.9 mm
05:45 PM 58.5°F14.7°C 48.7°F9.3°C 70% 3.1 mph NW5.0 kmh NW 6.9 mph11.1 kmh 30.14 in1020.7 mb 0.00 in0.0 mm 0.00 in/hr0.0 mm/hr 0.35 in8.9 mm
05:40 PM 58.8°F14.9°C 48.7°F9.3°C 69% 3.8 mph NW6.1 kmh NW 8.3 mph13.4 kmh 30.14 in1020.7 mb 0.00 in0.0 mm 0.00 in/hr0.0 mm/hr 0.35 in8.9 mm
05:35 PM 59.2°F15.1°C 48.6°F9.2°C 68% 3.8 mph NW6.1 kmh NW 9.8 mph15.8 kmh 30.14 in1020.7 mb 0.00 in0.0 mm 0.00 in/hr0.0 mm/hr 0.35 in8.9 mm
05:30 PM 59.5°F15.3°C 49.0°F9.4°C 68% 4.5 mph NW7.2 kmh NW 9.8 mph15.8 kmh 30.14 in1020.7 mb 0.00 in0.0 mm 0.00 in/hr0.0 mm/hr 0.35 in8.9 mm
05:25 PM 59.9°F15.5°C 49.3°F9.6°C 68% 4.5 mph NW7.2 kmh NW 9.2 mph14.8 kmh 30.14 in1020.7 mb 0.00 in0.0 mm 0.00 in/hr0.0 mm/hr 0.35 in8.9 mm
05:20 PM 60.1°F15.6°C 49.5°F9.7°C 68% 3.8 mph NW6.1 kmh NW 9.2 mph14.8 kmh 30.14 in1020.7 mb 0.00 in0.0 mm 0.00 in/hr0.0 mm/hr 0.35 in8.9 mm
05:15 PM 60.3°F15.7°C 49.3°F9.6°C 67% 2.2 mph NW3.5 kmh NW 7.6 mph12.2 kmh 30.14 in1020.7 mb 0.00 in0.0 mm 0.00 in/hr0.0 mm/hr 0.35 in8.9 mm
05:10 PM 60.6°F15.9°C 49.2°F9.6°C 66% 4.5 mph NW7.2 kmh NW 8.3 mph13.4 kmh 30.14 in1020.7 mb 0.00 in0.0 mm 0.00 in/hr0.0 mm/hr 0.35 in8.9 mm
05:05 PM 60.6°F15.9°C 49.2°F9.6°C 66% 4.5 mph NW7.2 kmh NW 9.8 mph15.8 kmh 30.14 in1020.7 mb 0.00 in0.0 mm 0.00 in/hr0.0 mm/hr 0.35 in8.9 mm
05:00 PM 61.0°F16.1°C 48.7°F9.3°C 64% 6.0 mph NW9.7 kmh NW 12.1 mph19.5 kmh 30.14 in1020.7 mb 0.00 in0.0 mm 0.00 in/hr0.0 mm/hr 0.35 in8.9 mm
04:55 PM 61.5°F16.4°C 49.2°F9.6°C 64% 6.0 mph NW9.7 kmh NW 14.5 mph23.3 kmh 30.13 in1020.3 mb 0.00 in0.0 mm 0.00 in/hr0.0 mm/hr 0.35 in8.9 mm
04:50 PM 62.1°F16.7°C 49.3°F9.6°C 63% 8.3 mph NNW13.4 kmh NNW 15.2 mph24.5 kmh 30.13 in1020.3 mb 0.00 in0.0 mm 0.00 in/hr0.0 mm/hr 0.35 in8.9 mm
04:45 PM 62.8°F17.1°C 50.0°F10.0°C 63% 9.2 mph N14.8 kmh N 15.2 mph24.5 kmh 30.14 in1020.7 mb 0.00 in0.0 mm 0.00 in/hr0.0 mm/hr 0.35 in8.9 mm
04:35 PM 63.3°F17.4°C 51.4°F10.8°C 65% 6.0 mph NNW9.7 kmh NNW 16.8 mph27.0 kmh 30.13 in1020.3 mb 0.00 in0.0 mm 0.00 in/hr0.0 mm/hr 0.35 in8.9 mm
04:30 PM 63.7°F17.6°C 51.7°F10.9°C 65% 9.8 mph NNW15.8 kmh NNW 16.8 mph27.0 kmh 30.14 in1020.7 mb 0.00 in0.0 mm 0.00 in/hr0.0 mm/hr 0.35 in8.9 mm
04:25 PM 63.9°F17.7°C 51.0°F10.6°C 63% 11.4 mph NW18.3 kmh NW 16.8 mph27.0 kmh 30.13 in1020.3 mb 0.00 in0.0 mm 0.00 in/hr0.0 mm/hr 0.35 in8.9 mm
04:20 PM 64.2°F17.9°C 52.6°F11.4°C 66% 8.3 mph NW13.4 kmh NW 15.2 mph24.5 kmh 30.13 in1020.3 mb 0.00 in0.0 mm 0.00 in/hr0.0 mm/hr 0.35 in8.9 mm
04:15 PM 63.7°F17.6°C 52.9°F11.6°C 68% 7.6 mph NNW12.2 kmh NNW 16.8 mph27.0 kmh 30.13 in1020.3 mb 0.00 in0.0 mm 0.00 in/hr0.0 mm/hr 0.35 in8.9 mm
04:10 PM 63.3°F17.4°C 52.6°F11.4°C 68% 8.3 mph N13.4 kmh N 16.8 mph27.0 kmh 30.12 in1020.0 mb 0.00 in0.0 mm 0.00 in/hr0.0 mm/hr 0.35 in8.9 mm
04:05 PM 62.8°F17.1°C 52.5°F11.4°C 69% 8.3 mph NNW13.4 kmh NNW 15.2 mph24.5 kmh 30.13 in1020.3 mb 0.00 in0.0 mm 0.00 in/hr0.0 mm/hr 0.35 in8.9 mm
04:00 PM 62.6°F17.0°C 52.3°F11.3°C 69% 6.9 mph NNW11.1 kmh NNW 15.2 mph24.5 kmh 30.12 in1020.0 mb 0.00 in0.0 mm 0.00 in/hr0.0 mm/hr 0.35 in8.9 mm
03:55 PM 61.9°F16.6°C 52.0°F11.1°C 70% 8.3 mph NW13.4 kmh NW 17.4 mph28.0 kmh 30.13 in1020.3 mb 0.00 in0.0 mm 0.00 in/hr0.0 mm/hr 0.35 in8.9 mm
03:50 PM 61.7°F16.5°C 51.4°F10.8°C 69% 6.9 mph NW11.1 kmh NW 17.4 mph28.0 kmh 30.12 in1020.0 mb 0.00 in0.0 mm 0.00 in/hr0.0 mm/hr 0.35 in8.9 mm
03:45 PM 62.1°F16.7°C 51.8°F11.0°C 69% 9.2 mph NW14.8 kmh NW 17.4 mph28.0 kmh 30.12 in1020.0 mb 0.00 in0.0 mm 0.00 in/hr0.0 mm/hr 0.35 in8.9 mm
03:40 PM 62.4°F16.9°C 52.1°F11.2°C 69% 5.4 mph NW8.7 kmh NW 15.9 mph25.6 kmh 30.12 in1020.0 mb 0.00 in0.0 mm 0.00 in/hr0.0 mm/hr 0.35 in8.9 mm
03:35 PM 62.6°F17.0°C 52.3°F11.3°C 69% 8.3 mph NW13.4 kmh NW 15.9 mph25.6 kmh 30.11 in1019.6 mb 0.00 in0.0 mm 0.00 in/hr0.0 mm/hr 0.35 in8.9 mm
03:30 PM 62.4°F16.9°C 52.9°F11.6°C 71% 6.9 mph NW11.1 kmh NW 15.2 mph24.5 kmh 30.12 in1020.0 mb 0.00 in0.0 mm 0.00 in/hr0.0 mm/hr 0.35 in8.9 mm
03:25 PM 62.1°F16.7°C 52.2°F11.2°C 70% 11.4 mph NW18.3 kmh NW 16.8 mph27.0 kmh 30.12 in1020.0 mb 0.00 in0.0 mm 0.00 in/hr0.0 mm/hr 0.35 in8.9 mm
03:20 PM 62.1°F16.7°C 52.6°F11.4°C 71% 7.6 mph NW12.2 kmh NW 16.8 mph27.0 kmh 30.11 in1019.6 mb 0.00 in0.0 mm 0.00 in/hr0.0 mm/hr 0.35 in8.9 mm
03:15 PM 62.2°F16.8°C 52.3°F11.3°C 70% 12.1 mph NW19.5 kmh NW 16.8 mph27.0 kmh 30.12 in1020.0 mb 0.00 in0.0 mm 0.00 in/hr0.0 mm/hr 0.35 in8.9 mm
03:10 PM 62.4°F16.9°C 52.5°F11.4°C 70% 9.2 mph NNW14.8 kmh NNW 18.3 mph29.5 kmh 30.12 in1020.0 mb 0.00 in0.0 mm 0.00 in/hr0.0 mm/hr 0.35 in8.9 mm
03:05 PM 62.8°F17.1°C 53.3°F11.8°C 71% 9.2 mph NNW14.8 kmh NNW 18.3 mph29.5 kmh 30.11 in1019.6 mb 0.00 in0.0 mm 0.00 in/hr0.0 mm/hr 0.35 in8.9 mm
03:00 PM 63.3°F17.4°C 53.4°F11.9°C 70% 9.8 mph NNW15.8 kmh NNW 19.0 mph30.6 kmh 30.11 in1019.6 mb 0.00 in0.0 mm 0.00 in/hr0.0 mm/hr 0.35 in8.9 mm
02:55 PM 63.9°F17.7°C 54.3°F12.4°C 71% 11.4 mph NW18.3 kmh NW 22.8 mph36.7 kmh 30.11 in1019.6 mb 0.00 in0.0 mm 0.00 in/hr0.0 mm/hr 0.35 in8.9 mm
02:50 PM 64.6°F18.1°C 53.8°F12.1°C 68% 13.6 mph NW21.9 kmh NW 22.8 mph36.7 kmh 30.11 in1019.6 mb 0.00 in0.0 mm 0.00 in/hr0.0 mm/hr 0.35 in8.9 mm
02:45 PM 65.7°F18.7°C 56.4°F13.6°C 72% 6.0 mph NW9.7 kmh NW 17.4 mph28.0 kmh 30.11 in1019.6 mb 0.00 in0.0 mm 0.00 in/hr0.0 mm/hr 0.35 in8.9 mm
02:40 PM 65.1°F18.4°C 54.7°F12.6°C 69% 10.7 mph NW17.2 kmh NW 17.4 mph28.0 kmh 30.11 in1019.6 mb 0.00 in0.0 mm 0.00 in/hr0.0 mm/hr 0.35 in8.9 mm
02:35 PM 65.8°F18.8°C 55.4°F13.0°C 69% 10.7 mph NW17.2 kmh NW 17.4 mph28.0 kmh 30.11 in1019.6 mb 0.00 in0.0 mm 0.00 in/hr0.0 mm/hr 0.35 in8.9 mm
02:30 PM 65.7°F18.7°C 55.6°F13.1°C 70% 9.2 mph NW14.8 kmh NW 17.4 mph28.0 kmh 30.11 in1019.6 mb 0.00 in0.0 mm 0.00 in/hr0.0 mm/hr 0.35 in8.9 mm
02:25 PM 65.7°F18.7°C 55.6°F13.1°C 70% 7.6 mph NW12.2 kmh NW 21.3 mph34.3 kmh 30.10 in1019.3 mb 0.00 in0.0 mm 0.00 in/hr0.0 mm/hr 0.35 in8.9 mm
02:20 PM 65.8°F18.8°C 55.8°F13.2°C 70% 6.9 mph NW11.1 kmh NW 21.3 mph34.3 kmh 30.10 in1019.3 mb 0.00 in0.0 mm 0.00 in/hr0.0 mm/hr 0.35 in8.9 mm
02:15 PM 66.2°F19.0°C 56.5°F13.6°C 71% 13.0 mph NNW20.9 kmh NNW 21.3 mph34.3 kmh 30.11 in1019.6 mb 0.00 in0.0 mm 0.00 in/hr0.0 mm/hr 0.35 in8.9 mm
02:10 PM 65.5°F18.6°C 56.6°F13.7°C 73% 9.8 mph NW15.8 kmh NW 18.3 mph29.5 kmh 30.10 in1019.3 mb 0.00 in0.0 mm 0.00 in/hr0.0 mm/hr 0.35 in8.9 mm
02:05 PM 64.8°F18.2°C 55.5°F13.1°C 72% 9.8 mph NW15.8 kmh NW 19.0 mph30.6 kmh 30.10 in1019.3 mb 0.00 in0.0 mm 0.00 in/hr0.0 mm/hr 0.35 in8.9 mm
02:00 PM 64.8°F18.2°C 55.2°F12.9°C 71% 12.1 mph NNW19.5 kmh NNW 19.0 mph30.6 kmh 30.10 in1019.3 mb 0.00 in0.0 mm 0.00 in/hr0.0 mm/hr 0.35 in8.9 mm
01:55 PM 64.6°F18.1°C 56.9°F13.8°C 76% 14.5 mph NW23.3 kmh NW 19.0 mph30.6 kmh 30.10 in1019.3 mb 0.00 in0.0 mm 0.00 in/hr0.0 mm/hr 0.35 in8.9 mm
01:50 PM 63.9°F17.7°C 57.2°F14.0°C 79% 9.8 mph NW15.8 kmh NW 18.3 mph29.5 kmh 30.10 in1019.3 mb 0.00 in0.0 mm 0.00 in/hr0.0 mm/hr 0.35 in8.9 mm
01:45 PM 63.1°F17.3°C 56.5°F13.6°C 79% 8.3 mph NW13.4 kmh NW 18.3 mph29.5 kmh 30.10 in1019.3 mb 0.00 in0.0 mm 0.00 in/hr0.0 mm/hr 0.35 in8.9 mm
01:40 PM 63.0°F17.2°C 56.7°F13.7°C 80% 9.2 mph NW14.8 kmh NW 16.8 mph27.0 kmh 30.10 in1019.3 mb 0.00 in0.0 mm 0.00 in/hr0.0 mm/hr 0.35 in8.9 mm
01:35 PM 62.6°F17.0°C 56.4°F13.6°C 80% 6.9 mph NW11.1 kmh NW 18.3 mph29.5 kmh 30.11 in1019.6 mb 0.00 in0.0 mm 0.00 in/hr0.0 mm/hr 0.35 in8.9 mm
01:30 PM 62.8°F17.1°C 56.2°F13.4°C 79% 9.8 mph NNW15.8 kmh NNW 18.3 mph29.5 kmh 30.11 in1019.6 mb 0.00 in0.0 mm 0.00 in/hr0.0 mm/hr 0.35 in8.9 mm
01:25 PM 63.1°F17.3°C 56.2°F13.4°C 78% 9.2 mph NNW14.8 kmh NNW 17.4 mph28.0 kmh 30.11 in1019.6 mb 0.00 in0.0 mm 0.00 in/hr0.0 mm/hr 0.35 in8.9 mm
01:20 PM 63.1°F17.3°C 55.8°F13.2°C 77% 12.1 mph NW19.5 kmh NW 17.4 mph28.0 kmh 30.11 in1019.6 mb 0.00 in0.0 mm 0.00 in/hr0.0 mm/hr 0.35 in8.9 mm
01:15 PM 63.7°F17.6°C 56.0°F13.3°C 76% 11.4 mph NW18.3 kmh NW 17.4 mph28.0 kmh 30.11 in1019.6 mb 0.00 in0.0 mm 0.00 in/hr0.0 mm/hr 0.35 in8.9 mm
01:10 PM 64.4°F18.0°C 57.1°F13.9°C 77% 8.3 mph NW13.4 kmh NW 19.0 mph30.6 kmh 30.11 in1019.6 mb 0.00 in0.0 mm 0.00 in/hr0.0 mm/hr 0.35 in8.9 mm
01:05 PM 64.4°F18.0°C 56.7°F13.7°C 76% 12.1 mph NW19.5 kmh NW 19.0 mph30.6 kmh 30.11 in1019.6 mb 0.00 in0.0 mm 0.00 in/hr0.0 mm/hr 0.35 in8.9 mm
01:00 PM 64.0°F17.8°C 57.4°F14.1°C 79% 10.7 mph NNW17.2 kmh NNW 19.7 mph31.7 kmh 30.11 in1019.6 mb 0.00 in0.0 mm 0.00 in/hr0.0 mm/hr 0.35 in8.9 mm
12:55 PM 63.3°F17.4°C 57.7°F14.3°C 82% 10.7 mph NW17.2 kmh NW 19.7 mph31.7 kmh 30.12 in1020.0 mb 0.00 in0.0 mm 0.00 in/hr0.0 mm/hr 0.35 in8.9 mm
12:50 PM 62.6°F17.0°C 57.0°F13.9°C 82% 13.6 mph NW21.9 kmh NW 19.7 mph31.7 kmh 30.11 in1019.6 mb 0.00 in0.0 mm 0.00 in/hr0.0 mm/hr 0.35 in8.9 mm
12:45 PM 62.2°F16.8°C 56.7°F13.7°C 82% 8.3 mph NW13.4 kmh NW 19.0 mph30.6 kmh 30.12 in1020.0 mb 0.00 in0.0 mm 0.00 in/hr0.0 mm/hr 0.35 in8.9 mm
12:40 PM 62.1°F16.7°C 56.9°F13.8°C 83% 10.7 mph NW17.2 kmh NW 15.9 mph25.6 kmh 30.11 in1019.6 mb 0.00 in0.0 mm 0.00 in/hr0.0 mm/hr 0.35 in8.9 mm
12:35 PM 61.9°F16.6°C 57.3°F14.1°C 85% 9.8 mph NNW15.8 kmh NNW 15.9 mph25.6 kmh 30.11 in1019.6 mb 0.00 in0.0 mm 0.00 in/hr0.0 mm/hr 0.35 in8.9 mm
12:30 PM 62.1°F16.7°C 57.5°F14.2°C 85% 10.7 mph NW17.2 kmh NW 15.9 mph25.6 kmh 30.12 in1020.0 mb 0.00 in0.0 mm 0.00 in/hr0.0 mm/hr 0.35 in8.9 mm
12:25 PM 61.3°F16.3°C 57.5°F14.2°C 87% 8.3 mph NW13.4 kmh NW 14.5 mph23.3 kmh 30.12 in1020.0 mb 0.00 in0.0 mm 0.00 in/hr0.0 mm/hr 0.35 in8.9 mm
12:20 PM 61.0°F16.1°C 58.0°F14.4°C 90% 5.4 mph NW8.7 kmh NW 12.1 mph19.5 kmh 30.12 in1020.0 mb 0.00 in0.0 mm 0.00 in/hr0.0 mm/hr 0.35 in8.9 mm
12:15 PM 60.4°F15.8°C 57.2°F14.0°C 89% 4.5 mph NW7.2 kmh NW 13.0 mph20.9 kmh 30.12 in1020.0 mb 0.00 in0.0 mm 0.00 in/hr0.0 mm/hr 0.35 in8.9 mm
12:10 PM 60.1°F15.6°C 56.5°F13.6°C 88% 6.0 mph NNW9.7 kmh NNW 14.5 mph23.3 kmh 30.12 in1020.0 mb 0.00 in0.0 mm 0.00 in/hr0.0 mm/hr 0.35 in8.9 mm
12:05 PM 60.1°F15.6°C 56.8°F13.8°C 89% 8.3 mph NNW13.4 kmh NNW 14.5 mph23.3 kmh 30.11 in1019.6 mb 0.00 in0.0 mm 0.00 in/hr0.0 mm/hr 0.35 in8.9 mm
12:00 PM 59.9°F15.5°C 57.6°F14.2°C 92% 6.0 mph NW9.7 kmh NW 13.6 mph21.9 kmh 30.11 in1019.6 mb 0.00 in0.0 mm 0.00 in/hr0.0 mm/hr 0.35 in8.9 mm
11:55 AM 59.5°F15.3°C 56.6°F13.7°C 90% 7.6 mph NW12.2 kmh NW 14.5 mph23.3 kmh 30.13 in1020.3 mb 0.00 in0.0 mm 0.00 in/hr0.0 mm/hr 0.35 in8.9 mm
11:50 AM 59.5°F15.3°C 56.6°F13.7°C 90% 6.9 mph NNW11.1 kmh NNW 15.9 mph25.6 kmh 30.13 in1020.3 mb 0.00 in0.0 mm 0.00 in/hr0.0 mm/hr 0.35 in8.9 mm
11:45 AM 59.7°F15.4°C 56.8°F13.8°C 90% 9.8 mph NW15.8 kmh NW 15.9 mph25.6 kmh 30.13 in1020.3 mb 0.00 in0.0 mm 0.00 in/hr0.0 mm/hr 0.35 in8.9 mm
11:40 AM 59.9°F15.5°C 57.0°F13.9°C 90% 10.7 mph NW17.2 kmh NW 15.9 mph25.6 kmh 30.13 in1020.3 mb 0.00 in0.0 mm 0.00 in/hr0.0 mm/hr 0.35 in8.9 mm
11:35 AM 59.9°F15.5°C 58.5°F14.7°C 95% 8.3 mph NW13.4 kmh NW 13.6 mph21.9 kmh 30.12 in1020.0 mb 0.00 in0.0 mm 0.00 in/hr0.0 mm/hr 0.35 in8.9 mm
11:30 AM 59.7°F15.4°C 58.3°F14.6°C 95% 6.0 mph NNW9.7 kmh NNW 17.4 mph28.0 kmh 30.13 in1020.3 mb 0.00 in0.0 mm 0.00 in/hr0.0 mm/hr 0.35 in8.9 mm
11:25 AM 59.5°F15.3°C 58.1°F14.5°C 95% 10.7 mph NNW17.2 kmh NNW 17.4 mph28.0 kmh 30.13 in1020.3 mb 0.00 in0.0 mm 0.00 in/hr0.0 mm/hr 0.35 in8.9 mm
11:20 AM 59.4°F15.2°C 57.9°F14.4°C 95% 7.6 mph N12.2 kmh N 17.4 mph28.0 kmh 30.12 in1020.0 mb 0.00 in0.0 mm 0.00 in/hr0.0 mm/hr 0.35 in8.9 mm
11:15 AM 59.4°F15.2°C 58.2°F14.6°C 96% 6.9 mph N11.1 kmh N 17.4 mph28.0 kmh 30.12 in1020.0 mb 0.00 in0.0 mm 0.00 in/hr0.0 mm/hr 0.35 in8.9 mm
11:10 AM 59.5°F15.3°C 58.7°F14.8°C 97% 7.6 mph NW12.2 kmh NW 15.2 mph24.5 kmh 30.12 in1020.0 mb 0.00 in0.0 mm 0.00 in/hr0.0 mm/hr 0.35 in8.9 mm
11:05 AM 59.2°F15.1°C 58.9°F14.9°C 99% 8.3 mph NW13.4 kmh NW 14.5 mph23.3 kmh 30.12 in1020.0 mb 0.00 in0.0 mm 0.00 in/hr0.0 mm/hr 0.35 in8.9 mm
11:00 AM 59.2°F15.1°C 58.9°F14.9°C 99% 8.3 mph NW13.4 kmh NW 14.5 mph23.3 kmh 30.13 in1020.3 mb 0.00 in0.0 mm 0.00 in/hr0.0 mm/hr 0.35 in8.9 mm
10:55 AM 58.8°F14.9°C 58.6°F14.8°C 99% 6.0 mph NW9.7 kmh NW 13.0 mph20.9 kmh 30.13 in1020.3 mb 0.00 in0.0 mm 0.00 in/hr0.0 mm/hr 0.35 in8.9 mm
10:50 AM 58.6°F14.8°C 58.4°F14.7°C 99% 4.5 mph NNW7.2 kmh NNW 13.6 mph21.9 kmh 30.12 in1020.0 mb 0.00 in0.0 mm 0.00 in/hr0.0 mm/hr 0.35 in8.9 mm
10:45 AM 58.6°F14.8°C 58.4°F14.7°C 99% 8.3 mph NNW13.4 kmh NNW 13.6 mph21.9 kmh 30.11 in1019.6 mb 0.00 in0.0 mm 0.00 in/hr0.0 mm/hr 0.35 in8.9 mm
10:40 AM 58.5°F14.7°C 58.2°F14.6°C 99% 6.0 mph NNW9.7 kmh NNW 13.6 mph21.9 kmh 30.12 in1020.0 mb 0.00 in0.0 mm 0.00 in/hr0.0 mm/hr 0.35 in8.9 mm
10:35 AM 58.5°F14.7°C 58.2°F14.6°C 99% 6.9 mph N11.1 kmh N 13.0 mph20.9 kmh 30.11 in1019.6 mb 0.00 in0.0 mm 0.00 in/hr0.0 mm/hr 0.35 in8.9 mm
10:30 AM 58.3°F14.6°C 58.0°F14.4°C 99% 6.9 mph NNW11.1 kmh NNW 13.0 mph20.9 kmh 30.12 in1020.0 mb 0.00 in0.0 mm 0.00 in/hr0.0 mm/hr 0.35 in8.9 mm
10:25 AM 58.3°F14.6°C 58.0°F14.4°C 99% 6.9 mph NNW11.1 kmh NNW 13.6 mph21.9 kmh 30.12 in1020.0 mb 0.00 in0.0 mm 0.00 in/hr0.0 mm/hr 0.35 in8.9 mm
10:20 AM 57.9°F14.4°C 57.7°F14.3°C 99% 6.9 mph NNW11.1 kmh NNW 13.6 mph21.9 kmh 30.12 in1020.0 mb 0.00 in0.0 mm 0.00 in/hr0.0 mm/hr 0.35 in8.9 mm
10:15 AM 57.7°F14.3°C 57.5°F14.2°C 99% 9.2 mph NNW14.8 kmh NNW 13.6 mph21.9 kmh 30.11 in1019.6 mb 0.00 in0.0 mm 0.00 in/hr0.0 mm/hr 0.35 in8.9 mm
10:10 AM 57.7°F14.3°C 57.5°F14.2°C 99% 6.0 mph N9.7 kmh N 15.9 mph25.6 kmh 30.11 in1019.6 mb 0.00 in0.0 mm 0.00 in/hr0.0 mm/hr 0.35 in8.9 mm
10:05 AM 57.6°F14.2°C 57.3°F14.1°C 99% 9.2 mph N14.8 kmh N 15.9 mph25.6 kmh 30.11 in1019.6 mb 0.00 in0.0 mm 0.00 in/hr0.0 mm/hr 0.35 in8.9 mm
10:00 AM 57.4°F14.1°C 57.1°F13.9°C 99% 10.7 mph N17.2 kmh N 15.9 mph25.6 kmh 30.10 in1019.3 mb 0.00 in0.0 mm 0.00 in/hr0.0 mm/hr 0.35 in8.9 mm
09:55 AM 57.2°F14.0°C 56.9°F13.8°C 99% 6.0 mph NNW9.7 kmh NNW 13.0 mph20.9 kmh 30.11 in1019.6 mb 0.00 in0.0 mm 0.00 in/hr0.0 mm/hr 0.35 in8.9 mm
09:50 AM 57.0°F13.9°C 56.8°F13.8°C 99% 3.8 mph NNW6.1 kmh NNW 14.5 mph23.3 kmh 30.11 in1019.6 mb 0.00 in0.0 mm 0.00 in/hr0.0 mm/hr 0.35 in8.9 mm
09:45 AM 57.0°F13.9°C 56.8°F13.8°C 99% 6.9 mph NNW11.1 kmh NNW 14.5 mph23.3 kmh 30.11 in1019.6 mb 0.00 in0.0 mm 0.00 in/hr0.0 mm/hr 0.35 in8.9 mm
09:40 AM 56.7°F13.7°C 56.4°F13.6°C 99% 7.6 mph NNW12.2 kmh NNW 16.8 mph27.0 kmh 30.10 in1019.3 mb 0.00 in0.0 mm 0.00 in/hr0.0 mm/hr 0.35 in8.9 mm
09:35 AM 56.5°F13.6°C 56.2°F13.4°C 99% 5.4 mph NNW8.7 kmh NNW 20.6 mph33.2 kmh 30.09 in1019.0 mb 0.01 in0.3 mm 0.00 in/hr0.0 mm/hr 0.35 in8.9 mm
09:30 AM 56.5°F13.6°C 56.2°F13.4°C 99% 12.1 mph N19.5 kmh N 20.6 mph33.2 kmh 30.09 in1019.0 mb 0.01 in0.3 mm 0.00 in/hr0.0 mm/hr 0.35 in8.9 mm
09:25 AM 56.8°F13.8°C 56.6°F13.7°C 99% 9.8 mph NNW15.8 kmh NNW 18.3 mph29.5 kmh 30.09 in1019.0 mb 0.01 in0.3 mm 0.00 in/hr0.0 mm/hr 0.35 in8.9 mm
09:20 AM 56.8°F13.8°C 56.6°F13.7°C 99% 10.7 mph NNW17.2 kmh NNW 20.6 mph33.2 kmh 30.10 in1019.3 mb 0.01 in0.3 mm 0.00 in/hr0.0 mm/hr 0.35 in8.9 mm
09:15 AM 56.8°F13.8°C 56.6°F13.7°C 99% 13.0 mph NNW20.9 kmh NNW 20.6 mph33.2 kmh 30.08 in1018.6 mb 0.01 in0.3 mm 0.00 in/hr0.0 mm/hr 0.35 in8.9 mm
09:10 AM 56.8°F13.8°C 56.6°F13.7°C 99% 13.6 mph NNW21.9 kmh NNW 21.3 mph34.3 kmh 30.09 in1019.0 mb 0.01 in0.3 mm 0.00 in/hr0.0 mm/hr 0.35 in8.9 mm
09:05 AM 56.8°F13.8°C 56.6°F13.7°C 99% 11.4 mph NW18.3 kmh NW 21.3 mph34.3 kmh 30.09 in1019.0 mb 0.01 in0.3 mm 0.00 in/hr0.0 mm/hr 0.35 in8.9 mm
09:00 AM 57.0°F13.9°C 56.8°F13.8°C 99% 13.0 mph NNW20.9 kmh NNW 21.3 mph34.3 kmh 30.09 in1019.0 mb 0.02 in0.5 mm 0.00 in/hr0.0 mm/hr 0.35 in8.9 mm
08:55 AM 57.0°F13.9°C 56.8°F13.8°C 99% 9.8 mph NNW15.8 kmh NNW 20.6 mph33.2 kmh 30.08 in1018.6 mb 0.02 in0.5 mm 0.00 in/hr0.0 mm/hr 0.35 in8.9 mm
08:50 AM 56.8°F13.8°C 56.6°F13.7°C 99% 6.9 mph NNW11.1 kmh NNW 17.4 mph28.0 kmh 30.09 in1019.0 mb 0.02 in0.5 mm 0.00 in/hr0.0 mm/hr 0.35 in8.9 mm
08:45 AM 56.8°F13.8°C 56.6°F13.7°C 99% 11.4 mph N18.3 kmh N 19.7 mph31.7 kmh 30.08 in1018.6 mb 0.02 in0.5 mm 0.00 in/hr0.0 mm/hr 0.35 in8.9 mm
08:40 AM 56.8°F13.8°C 56.6°F13.7°C 99% 8.3 mph NNW13.4 kmh NNW 19.7 mph31.7 kmh 30.08 in1018.6 mb 0.02 in0.5 mm 0.12 in/hr3.0 mm/hr 0.35 in8.9 mm
08:35 AM 56.8°F13.8°C 56.6°F13.7°C 99% 8.3 mph NW13.4 kmh NW 17.4 mph28.0 kmh 30.07 in1018.3 mb 0.01 in0.3 mm 0.00 in/hr0.0 mm/hr 0.34 in8.6 mm
08:30 AM 56.7°F13.7°C 56.4°F13.6°C 99% 9.8 mph NW15.8 kmh NW 15.9 mph25.6 kmh 30.07 in1018.3 mb 0.01 in0.3 mm 0.00 in/hr0.0 mm/hr 0.34 in8.6 mm
08:25 AM 56.8°F13.8°C 56.6°F13.7°C 99% 6.0 mph NNW9.7 kmh NNW 15.9 mph25.6 kmh 30.07 in1018.3 mb 0.01 in0.3 mm 0.00 in/hr0.0 mm/hr 0.34 in8.6 mm
08:20 AM 56.8°F13.8°C 56.6°F13.7°C 99% 8.3 mph N13.4 kmh N 16.8 mph27.0 kmh 30.06 in1017.9 mb 0.01 in0.3 mm 0.00 in/hr0.0 mm/hr 0.34 in8.6 mm
08:15 AM 56.8°F13.8°C 56.6°F13.7°C 99% 8.3 mph NNW13.4 kmh NNW 16.8 mph27.0 kmh 30.05 in1017.6 mb 0.01 in0.3 mm 0.00 in/hr0.0 mm/hr 0.34 in8.6 mm
08:10 AM 56.8°F13.8°C 56.6°F13.7°C 99% 9.2 mph N14.8 kmh N 16.8 mph27.0 kmh 30.06 in1017.9 mb 0.01 in0.3 mm 0.00 in/hr0.0 mm/hr 0.34 in8.6 mm
08:05 AM 56.8°F13.8°C 56.6°F13.7°C 99% 6.9 mph NNW11.1 kmh NNW 15.2 mph24.5 kmh 30.06 in1017.9 mb 0.01 in0.3 mm 0.12 in/hr3.0 mm/hr 0.34 in8.6 mm
08:00 AM 57.0°F13.9°C 56.8°F13.8°C 99% 5.4 mph NW8.7 kmh NW 15.9 mph25.6 kmh 30.06 in1017.9 mb 0.00 in0.0 mm 0.00 in/hr0.0 mm/hr 0.33 in8.4 mm
07:55 AM 56.7°F13.7°C 56.4°F13.6°C 99% 8.3 mph NW13.4 kmh NW 17.4 mph28.0 kmh 30.05 in1017.6 mb 0.00 in0.0 mm 0.00 in/hr0.0 mm/hr 0.33 in8.4 mm
07:50 AM 56.7°F13.7°C 56.4°F13.6°C 99% 6.9 mph NW11.1 kmh NW 17.4 mph28.0 kmh 30.06 in1017.9 mb 0.00 in0.0 mm 0.00 in/hr0.0 mm/hr 0.33 in8.4 mm
07:45 AM 56.7°F13.7°C 56.4°F13.6°C 99% 11.4 mph NW18.3 kmh NW 18.3 mph29.5 kmh 30.05 in1017.6 mb 0.00 in0.0 mm 0.00 in/hr0.0 mm/hr 0.33 in8.4 mm
07:40 AM 56.7°F13.7°C 56.4°F13.6°C 99% 12.1 mph NNW19.5 kmh NNW 18.3 mph29.5 kmh 30.05 in1017.6 mb 0.00 in0.0 mm 0.00 in/hr0.0 mm/hr 0.33 in8.4 mm
07:35 AM 56.8°F13.8°C 56.6°F13.7°C 99% 10.7 mph NNW17.2 kmh NNW 17.4 mph28.0 kmh 30.03 in1016.9 mb 0.00 in0.0 mm 0.00 in/hr0.0 mm/hr 0.33 in8.4 mm
07:30 AM 56.8°F13.8°C 56.6°F13.7°C 99% 9.2 mph NNW14.8 kmh NNW 14.5 mph23.3 kmh 30.03 in1016.9 mb 0.00 in0.0 mm 0.00 in/hr0.0 mm/hr 0.33 in8.4 mm
07:25 AM 56.8°F13.8°C 56.6°F13.7°C 99% 9.8 mph NNW15.8 kmh NNW 16.8 mph27.0 kmh 30.03 in1016.9 mb 0.00 in0.0 mm 0.00 in/hr0.0 mm/hr 0.33 in8.4 mm
07:20 AM 57.0°F13.9°C 56.8°F13.8°C 99% 6.9 mph NNW11.1 kmh NNW 16.8 mph27.0 kmh 30.02 in1016.6 mb 0.00 in0.0 mm 0.00 in/hr0.0 mm/hr 0.33 in8.4 mm
07:15 AM 57.2°F14.0°C 56.9°F13.8°C 99% 8.3 mph NNW13.4 kmh NNW 13.6 mph21.9 kmh 30.02 in1016.6 mb 0.00 in0.0 mm 0.00 in/hr0.0 mm/hr 0.33 in8.4 mm
07:10 AM 57.0°F13.9°C 56.8°F13.8°C 99% 4.5 mph WNW7.2 kmh WNW 13.6 mph21.9 kmh 30.02 in1016.6 mb 0.00 in0.0 mm 0.00 in/hr0.0 mm/hr 0.33 in8.4 mm
07:05 AM 57.0°F13.9°C 56.8°F13.8°C 99% 6.0 mph WNW9.7 kmh WNW 13.6 mph21.9 kmh 30.01 in1016.3 mb 0.00 in0.0 mm 0.00 in/hr0.0 mm/hr 0.33 in8.4 mm
07:00 AM 57.0°F13.9°C 56.8°F13.8°C 99% 6.0 mph NW9.7 kmh NW 15.9 mph25.6 kmh 30.01 in1016.3 mb 0.00 in0.0 mm 0.00 in/hr0.0 mm/hr 0.33 in8.4 mm
06:55 AM 57.0°F13.9°C 56.8°F13.8°C 99% 6.9 mph NNW11.1 kmh NNW 17.4 mph28.0 kmh 30.01 in1016.3 mb 0.00 in0.0 mm 0.00 in/hr0.0 mm/hr 0.33 in8.4 mm
06:50 AM 56.8°F13.8°C 56.6°F13.7°C 99% 10.7 mph NNW17.2 kmh NNW 17.4 mph28.0 kmh 30.01 in1016.3 mb 0.00 in0.0 mm 0.00 in/hr0.0 mm/hr 0.33 in8.4 mm
06:45 AM 56.8°F13.8°C 56.6°F13.7°C 99% 8.3 mph NNW13.4 kmh NNW 18.3 mph29.5 kmh 29.99 in1015.6 mb 0.00 in0.0 mm 0.00 in/hr0.0 mm/hr 0.33 in8.4 mm
06:40 AM 56.8°F13.8°C 56.6°F13.7°C 99% 9.2 mph NW14.8 kmh NW 18.3 mph29.5 kmh 30.00 in1015.9 mb 0.00 in0.0 mm 0.00 in/hr0.0 mm/hr 0.33 in8.4 mm
06:35 AM 56.7°F13.7°C 56.4°F13.6°C 99% 13.0 mph NNW20.9 kmh NNW 19.0 mph30.6 kmh 30.00 in1015.9 mb 0.00 in0.0 mm 0.00 in/hr0.0 mm/hr 0.33 in8.4 mm
06:30 AM 56.8°F13.8°C 56.6°F13.7°C 99% 9.2 mph N14.8 kmh N 19.0 mph30.6 kmh 30.00 in1015.9 mb 0.01 in0.3 mm 0.00 in/hr0.0 mm/hr 0.33 in8.4 mm
06:25 AM 56.8°F13.8°C 56.6°F13.7°C 99% 13.0 mph N20.9 kmh N 19.0 mph30.6 kmh 29.99 in1015.6 mb 0.02 in0.5 mm 0.00 in/hr0.0 mm/hr 0.33 in8.4 mm
06:20 AM 56.7°F13.7°C 56.4°F13.6°C 99% 9.8 mph N15.8 kmh N 20.6 mph33.2 kmh 29.99 in1015.6 mb 0.02 in0.5 mm 0.00 in/hr0.0 mm/hr 0.33 in8.4 mm
06:15 AM 56.7°F13.7°C 56.4°F13.6°C 99% 13.0 mph N20.9 kmh N 21.3 mph34.3 kmh 29.98 in1015.2 mb 0.04 in1.0 mm 0.00 in/hr0.0 mm/hr 0.33 in8.4 mm
06:10 AM 56.8°F13.8°C 56.6°F13.7°C 99% 14.5 mph N23.3 kmh N 21.3 mph34.3 kmh 29.97 in1014.9 mb 0.04 in1.0 mm 0.00 in/hr0.0 mm/hr 0.33 in8.4 mm
06:05 AM 56.8°F13.8°C 56.6°F13.7°C 99% 15.9 mph N25.6 kmh N 24.4 mph39.3 kmh 29.96 in1014.6 mb 0.06 in1.5 mm 0.00 in/hr0.0 mm/hr 0.33 in8.4 mm
06:00 AM 56.8°F13.8°C 56.6°F13.7°C 99% 15.9 mph NNW25.6 kmh NNW 28.9 mph46.5 kmh 29.96 in1014.6 mb 0.06 in1.5 mm 0.00 in/hr0.0 mm/hr 0.33 in8.4 mm
05:55 AM 56.8°F13.8°C 56.6°F13.7°C 99% 15.9 mph NNW25.6 kmh NNW 28.9 mph46.5 kmh 29.95 in1014.2 mb 0.06 in1.5 mm 0.00 in/hr0.0 mm/hr 0.33 in8.4 mm
05:50 AM 56.8°F13.8°C 56.6°F13.7°C 99% 19.0 mph N30.6 kmh N 27.3 mph43.9 kmh 29.94 in1013.9 mb 0.06 in1.5 mm 0.00 in/hr0.0 mm/hr 0.33 in8.4 mm
05:45 AM 56.7°F13.7°C 56.4°F13.6°C 99% 18.3 mph N29.5 kmh N 27.3 mph43.9 kmh 29.95 in1014.2 mb 0.08 in2.0 mm 0.00 in/hr0.0 mm/hr 0.33 in8.4 mm
05:40 AM 56.5°F13.6°C 56.2°F13.4°C 99% 16.8 mph N27.0 kmh N 26.6 mph42.8 kmh 29.96 in1014.6 mb 0.12 in3.0 mm 0.00 in/hr0.0 mm/hr 0.33 in8.4 mm
05:35 AM 56.5°F13.6°C 56.2°F13.4°C 99% 11.4 mph N18.3 kmh N 26.6 mph42.8 kmh 29.97 in1014.9 mb 0.12 in3.0 mm 0.12 in/hr3.0 mm/hr 0.33 in8.4 mm
05:30 AM 56.5°F13.6°C 56.2°F13.4°C 99% 15.9 mph NNW25.6 kmh NNW 26.6 mph42.8 kmh 29.97 in1014.9 mb 0.11 in2.8 mm 0.00 in/hr0.0 mm/hr 0.32 in8.1 mm
05:25 AM 56.7°F13.7°C 56.4°F13.6°C 99% 10.7 mph NNW17.2 kmh NNW 25.9 mph41.7 kmh 29.98 in1015.2 mb 0.11 in2.8 mm 0.00 in/hr0.0 mm/hr 0.31 in7.9 mm
05:20 AM 56.7°F13.7°C 56.4°F13.6°C 99% 10.7 mph NNW17.2 kmh NNW 27.3 mph43.9 kmh 29.98 in1015.2 mb 0.12 in3.0 mm 0.12 in/hr3.0 mm/hr 0.31 in7.9 mm
05:15 AM 56.8°F13.8°C 56.6°F13.7°C 99% 10.7 mph NW17.2 kmh NW 30.4 mph48.9 kmh 29.98 in1015.2 mb 0.11 in2.8 mm 0.00 in/hr0.0 mm/hr 0.30 in7.6 mm
05:10 AM 57.0°F13.9°C 56.8°F13.8°C 99% 8.3 mph NW13.4 kmh NW 30.4 mph48.9 kmh 29.99 in1015.6 mb 0.11 in2.8 mm 0.00 in/hr0.0 mm/hr 0.28 in7.1 mm
05:05 AM 57.2°F14.0°C 56.9°F13.8°C 99% 18.3 mph NW29.5 kmh NW 30.4 mph48.9 kmh 29.98 in1015.2 mb 0.12 in3.0 mm 0.00 in/hr0.0 mm/hr 0.27 in6.9 mm
05:00 AM 57.2°F14.0°C 56.9°F13.8°C 99% 18.3 mph NW29.5 kmh NW 30.4 mph48.9 kmh 29.97 in1014.9 mb 0.12 in3.0 mm 0.00 in/hr0.0 mm/hr 0.27 in6.9 mm
04:55 AM 57.4°F14.1°C 57.1°F13.9°C 99% 9.8 mph NW15.8 kmh NW 29.8 mph48.0 kmh 29.97 in1014.9 mb 0.13 in3.3 mm 0.24 in/hr6.1 mm/hr 0.27 in6.9 mm
04:50 AM 57.4°F14.1°C 57.1°F13.9°C 99% 12.1 mph NW19.5 kmh NW 29.8 mph48.0 kmh 29.96 in1014.6 mb 0.11 in2.8 mm 0.00 in/hr0.0 mm/hr 0.25 in6.4 mm
04:45 AM 57.7°F14.3°C 57.5°F14.2°C 99% 10.7 mph NW17.2 kmh NW 26.6 mph42.8 kmh 29.95 in1014.2 mb 0.11 in2.8 mm 0.24 in/hr6.1 mm/hr 0.24 in6.1 mm
04:40 AM 57.9°F14.4°C 57.7°F14.3°C 99% 13.6 mph NW21.9 kmh NW 26.6 mph42.8 kmh 29.94 in1013.9 mb 0.09 in2.3 mm 0.00 in/hr0.0 mm/hr 0.21 in5.3 mm
04:35 AM 58.1°F14.5°C 57.8°F14.3°C 99% 13.6 mph NW21.9 kmh NW 25.9 mph41.7 kmh 29.93 in1013.5 mb 0.09 in2.3 mm 0.12 in/hr3.0 mm/hr 0.21 in5.3 mm
04:30 AM 58.1°F14.5°C 57.8°F14.3°C 99% 13.6 mph NW21.9 kmh NW 22.1 mph35.6 kmh 29.93 in1013.5 mb 0.08 in2.0 mm 0.00 in/hr0.0 mm/hr 0.20 in5.1 mm
04:25 AM 58.3°F14.6°C 58.0°F14.4°C 99% 10.7 mph NW17.2 kmh NW 22.8 mph36.7 kmh 29.93 in1013.5 mb 0.09 in2.3 mm 0.12 in/hr3.0 mm/hr 0.20 in5.1 mm
04:20 AM 58.3°F14.6°C 58.0°F14.4°C 99% 10.7 mph NNW17.2 kmh NNW 28.2 mph45.4 kmh 29.91 in1012.9 mb 0.08 in2.0 mm 0.00 in/hr0.0 mm/hr 0.19 in4.8 mm
04:15 AM 58.8°F14.9°C 58.6°F14.8°C 99% 12.1 mph NW19.5 kmh NW 28.2 mph45.4 kmh 29.91 in1012.9 mb 0.09 in2.3 mm 0.12 in/hr3.0 mm/hr 0.19 in4.8 mm
04:10 AM 58.8°F14.9°C 58.6°F14.8°C 99% 9.2 mph NW14.8 kmh NW 22.1 mph35.6 kmh 29.90 in1012.5 mb 0.08 in2.0 mm 0.12 in/hr3.0 mm/hr 0.18 in4.6 mm
04:05 AM 58.6°F14.8°C 58.4°F14.7°C 99% 9.2 mph NW14.8 kmh NW 21.3 mph34.3 kmh 29.91 in1012.9 mb 0.07 in1.8 mm 0.00 in/hr0.0 mm/hr 0.15 in3.8 mm
04:00 AM 58.6°F14.8°C 58.4°F14.7°C 99% 9.2 mph NW14.8 kmh NW 22.1 mph35.6 kmh 29.92 in1013.2 mb 0.08 in2.0 mm 0.01 in/hr0.3 mm/hr 0.15 in3.8 mm
03:55 AM 59.0°F15.0°C 58.7°F14.8°C 99% 11.4 mph NW18.3 kmh NW 25.1 mph40.4 kmh 29.93 in1013.5 mb 0.07 in1.8 mm 0.00 in/hr0.0 mm/hr 0.14 in3.6 mm
03:50 AM 59.4°F15.2°C 59.1°F15.1°C 99% 15.2 mph NW24.5 kmh NW 25.1 mph40.4 kmh 29.93 in1013.5 mb 0.08 in2.0 mm 0.12 in/hr3.0 mm/hr 0.14 in3.6 mm
03:45 AM 59.9°F15.5°C 59.6°F15.3°C 99% 12.1 mph NW19.5 kmh NW 22.1 mph35.6 kmh 29.91 in1012.9 mb 0.07 in1.8 mm 0.12 in/hr3.0 mm/hr 0.13 in3.3 mm
03:40 AM 60.3°F15.7°C 60.0°F15.6°C 99% 6.0 mph WNW9.7 kmh WNW 15.2 mph24.5 kmh 29.90 in1012.5 mb 0.06 in1.5 mm 0.00 in/hr0.0 mm/hr 0.12 in3.0 mm
03:35 AM 60.3°F15.7°C 60.0°F15.6°C 99% 8.3 mph NW13.4 kmh NW 19.7 mph31.7 kmh 29.90 in1012.5 mb 0.07 in1.8 mm 0.00 in/hr0.0 mm/hr 0.12 in3.0 mm
03:30 AM 60.3°F15.7°C 60.0°F15.6°C 99% 8.3 mph NNW13.4 kmh NNW 19.7 mph31.7 kmh 29.88 in1011.9 mb 0.07 in1.8 mm 0.12 in/hr3.0 mm/hr 0.12 in3.0 mm
03:25 AM 60.4°F15.8°C 60.2°F15.7°C 99% 8.3 mph NW13.4 kmh NW 19.0 mph30.6 kmh 29.89 in1012.2 mb 0.06 in1.5 mm 0.00 in/hr0.0 mm/hr 0.11 in2.8 mm
03:20 AM 60.6°F15.9°C 60.4°F15.8°C 99% 6.9 mph NW11.1 kmh NW 18.3 mph29.5 kmh 29.89 in1012.2 mb 0.06 in1.5 mm 0.12 in/hr3.0 mm/hr 0.11 in2.8 mm
03:15 AM 60.8°F16.0°C 60.5°F15.8°C 99% 8.3 mph NNW13.4 kmh NNW 17.4 mph28.0 kmh 29.89 in1012.2 mb 0.05 in1.3 mm 0.00 in/hr0.0 mm/hr 0.09 in2.3 mm
03:10 AM 61.0°F16.1°C 60.7°F15.9°C 99% 9.2 mph NNW14.8 kmh NNW 19.7 mph31.7 kmh 29.88 in1011.9 mb 0.05 in1.3 mm 0.00 in/hr0.0 mm/hr 0.09 in2.3 mm
03:05 AM 61.2°F16.2°C 60.9°F16.1°C 99% 8.3 mph NW13.4 kmh NW 25.9 mph41.7 kmh 29.88 in1011.9 mb 0.05 in1.3 mm 0.00 in/hr0.0 mm/hr 0.08 in2.0 mm
03:00 AM 61.9°F16.6°C 61.6°F16.4°C 99% 13.0 mph NW20.9 kmh NW 25.9 mph41.7 kmh 29.89 in1012.2 mb 0.05 in1.3 mm 0.00 in/hr0.0 mm/hr 0.07 in1.8 mm
02:55 AM 61.9°F16.6°C 61.6°F16.4°C 99% 11.4 mph NW18.3 kmh NW 19.7 mph31.7 kmh 29.88 in1011.9 mb 0.05 in1.3 mm 0.12 in/hr3.0 mm/hr 0.07 in1.8 mm
02:50 AM 62.2°F16.8°C 62.0°F16.7°C 99% 10.7 mph NW17.2 kmh NW 19.7 mph31.7 kmh 29.87 in1011.5 mb 0.04 in1.0 mm 0.00 in/hr0.0 mm/hr 0.06 in1.5 mm
02:45 AM 62.2°F16.8°C 62.0°F16.7°C 99% 9.2 mph NW14.8 kmh NW 17.4 mph28.0 kmh 29.88 in1011.9 mb 0.04 in1.0 mm 0.24 in/hr6.1 mm/hr 0.06 in1.5 mm
02:40 AM 62.1°F16.7°C 61.8°F16.6°C 99% 9.2 mph NW14.8 kmh NW 17.4 mph28.0 kmh 29.88 in1011.9 mb 0.02 in0.5 mm 0.00 in/hr0.0 mm/hr 0.05 in1.3 mm
02:35 AM 62.4°F16.9°C 62.2°F16.8°C 99% 7.6 mph NW12.2 kmh NW 17.4 mph28.0 kmh 29.87 in1011.5 mb 0.02 in0.5 mm 0.00 in/hr0.0 mm/hr 0.05 in1.3 mm
02:30 AM 62.8°F17.1°C 62.5°F16.9°C 99% 7.6 mph NW12.2 kmh NW 15.9 mph25.6 kmh 29.87 in1011.5 mb 0.04 in1.0 mm 0.00 in/hr0.0 mm/hr 0.05 in1.3 mm
02:25 AM 63.0°F17.2°C 62.7°F17.1°C 99% 9.2 mph NW14.8 kmh NW 15.9 mph25.6 kmh 29.87 in1011.5 mb 0.04 in1.0 mm 0.00 in/hr0.0 mm/hr 0.05 in1.3 mm
02:20 AM 63.5°F17.5°C 63.2°F17.3°C 99% 7.6 mph NW12.2 kmh NW 19.7 mph31.7 kmh 29.87 in1011.5 mb 0.05 in1.3 mm 0.00 in/hr0.0 mm/hr 0.05 in1.3 mm
02:15 AM 63.5°F17.5°C 63.2°F17.3°C 99% 9.2 mph NW14.8 kmh NW 19.7 mph31.7 kmh 29.87 in1011.5 mb 0.05 in1.3 mm 0.12 in/hr3.0 mm/hr 0.05 in1.3 mm
02:10 AM 64.0°F17.8°C 63.8°F17.7°C 99% 8.3 mph NW13.4 kmh NW 15.9 mph25.6 kmh 29.86 in1011.2 mb 0.04 in1.0 mm 0.00 in/hr0.0 mm/hr 0.04 in1.0 mm
02:05 AM 64.6°F18.1°C 64.3°F17.9°C 99% 7.6 mph NW12.2 kmh NW 19.0 mph30.6 kmh 29.86 in1011.2 mb 0.04 in1.0 mm 0.24 in/hr6.1 mm/hr 0.04 in1.0 mm
02:00 AM 64.9°F18.3°C 64.7°F18.2°C 99% 9.2 mph NW14.8 kmh NW 19.0 mph30.6 kmh 29.85 in1010.8 mb 0.02 in0.5 mm 0.00 in/hr0.0 mm/hr 0.02 in0.5 mm
01:55 AM 66.4°F19.1°C 66.1°F18.9°C 99% 7.6 mph WNW12.2 kmh WNW 17.4 mph28.0 kmh 29.84 in1010.5 mb 0.02 in0.5 mm 0.00 in/hr0.0 mm/hr 0.02 in0.5 mm
01:50 AM 66.9°F19.4°C 66.7°F19.3°C 99% 9.8 mph NW15.8 kmh NW 17.4 mph28.0 kmh 29.85 in1010.8 mb 0.02 in0.5 mm 0.00 in/hr0.0 mm/hr 0.02 in0.5 mm
01:45 AM 67.3°F19.6°C 67.0°F19.4°C 99% 4.5 mph WNW7.2 kmh WNW 15.2 mph24.5 kmh 29.84 in1010.5 mb 0.02 in0.5 mm 0.00 in/hr0.0 mm/hr 0.02 in0.5 mm
01:40 AM 68.0°F20.0°C 67.7°F19.8°C 99% 7.6 mph WNW12.2 kmh WNW 16.8 mph27.0 kmh 29.83 in1010.2 mb 0.02 in0.5 mm 0.00 in/hr0.0 mm/hr 0.02 in0.5 mm
01:35 AM 68.9°F20.5°C 68.6°F20.3°C 99% 11.4 mph W18.3 kmh W 19.0 mph30.6 kmh 29.84 in1010.5 mb 0.02 in0.5 mm 0.12 in/hr3.0 mm/hr 0.02 in0.5 mm
01:30 AM 70.7°F21.5°C 70.4°F21.3°C 99% 8.3 mph SW13.4 kmh SW 19.0 mph30.6 kmh 29.83 in1010.2 mb 0.01 in0.3 mm 0.00 in/hr0.0 mm/hr 0.01 in0.3 mm
01:25 AM 71.6°F22.0°C 71.3°F21.8°C 99% 11.4 mph SSW18.3 kmh SSW 19.0 mph30.6 kmh 29.83 in1010.2 mb 0.01 in0.3 mm 0.12 in/hr3.0 mm/hr 0.01 in0.3 mm
01:20 AM 72.1°F22.3°C 71.9°F22.2°C 99% 14.5 mph SSW23.3 kmh SSW 17.4 mph28.0 kmh 29.82 in1009.8 mb 0.00 in0.0 mm 0.00 in/hr0.0 mm/hr 0.01 in0.3 mm
01:15 AM 72.1°F22.3°C 71.9°F22.2°C 99% 13.6 mph SW21.9 kmh SW 17.4 mph28.0 kmh 29.83 in1010.2 mb 0.00 in0.0 mm 0.00 in/hr0.0 mm/hr 0.01 in0.3 mm
01:10 AM 72.3°F22.4°C 72.1°F22.3°C 99% 8.3 mph SW13.4 kmh SW 11.4 mph18.3 kmh 29.81 in1009.5 mb 0.00 in0.0 mm 0.00 in/hr0.0 mm/hr 0.01 in0.3 mm
01:05 AM 72.1°F22.3°C 71.9°F22.2°C 99% 6.0 mph SW9.7 kmh SW 12.1 mph19.5 kmh 29.80 in1009.1 mb 0.00 in0.0 mm 0.00 in/hr0.0 mm/hr 0.01 in0.3 mm
01:00 AM 72.1°F22.3°C 71.9°F22.2°C 99% 6.0 mph SSW9.7 kmh SSW 12.1 mph19.5 kmh 29.81 in1009.5 mb 0.00 in0.0 mm 0.00 in/hr0.0 mm/hr 0.01 in0.3 mm
12:55 AM 72.3°F22.4°C 72.1°F22.3°C 99% 6.9 mph SSW11.1 kmh SSW 10.7 mph17.2 kmh 29.81 in1009.5 mb 0.00 in0.0 mm 0.00 in/hr0.0 mm/hr 0.01 in0.3 mm
12:50 AM 71.8°F22.1°C 71.5°F21.9°C 99% 7.6 mph S12.2 kmh S 12.1 mph19.5 kmh 29.81 in1009.5 mb 0.00 in0.0 mm 0.00 in/hr0.0 mm/hr 0.01 in0.3 mm
12:45 AM 71.8°F22.1°C 71.5°F21.9°C 99% 8.3 mph S13.4 kmh S 12.1 mph19.5 kmh 29.79 in1008.8 mb 0.00 in0.0 mm 0.00 in/hr0.0 mm/hr 0.01 in0.3 mm
12:40 AM 72.0°F22.2°C 71.7°F22.1°C 99% 6.9 mph S11.1 kmh S 11.4 mph18.3 kmh 29.80 in1009.1 mb 0.00 in0.0 mm 0.00 in/hr0.0 mm/hr 0.01 in0.3 mm
12:35 AM 72.1°F22.3°C 71.9°F22.2°C 99% 5.4 mph S8.7 kmh S 11.4 mph18.3 kmh 29.79 in1008.8 mb 0.00 in0.0 mm 0.00 in/hr0.0 mm/hr 0.01 in0.3 mm
12:30 AM 72.0°F22.2°C 71.7°F22.1°C 99% 9.2 mph S14.8 kmh S 11.4 mph18.3 kmh 29.79 in1008.8 mb 0.00 in0.0 mm 0.00 in/hr0.0 mm/hr 0.01 in0.3 mm
12:25 AM 72.0°F22.2°C 71.7°F22.1°C 99% 7.6 mph S12.2 kmh S 9.8 mph15.8 kmh 29.79 in1008.8 mb 0.00 in0.0 mm 0.00 in/hr0.0 mm/hr 0.01 in0.3 mm
12:20 AM 71.6°F22.0°C 71.3°F21.8°C 99% 5.4 mph S8.7 kmh S 6.9 mph11.1 kmh 29.78 in1008.5 mb 0.00 in0.0 mm 0.00 in/hr0.0 mm/hr 0.01 in0.3 mm
12:15 AM 71.8°F22.1°C 71.5°F21.9°C 99% 4.5 mph S7.2 kmh S 6.9 mph11.1 kmh 29.79 in1008.8 mb 0.01 in0.3 mm 0.00 in/hr0.0 mm/hr 0.01 in0.3 mm
12:10 AM 71.8°F22.1°C 71.5°F21.9°C 99% 5.4 mph S8.7 kmh S 6.9 mph11.1 kmh 29.79 in1008.8 mb 0.01 in0.3 mm 0.00 in/hr0.0 mm/hr 0.01 in0.3 mm
12:05 AM 71.6°F22.0°C 71.3°F21.8°C 99% 4.5 mph S7.2 kmh S 6.9 mph11.1 kmh 29.79 in1008.8 mb 0.01 in0.3 mm 0.00 in/hr0.0 mm/hr 0.01 in0.3 mm
12:00 AM 71.4°F21.9°C 71.2°F21.8°C 99% 3.8 mph S6.1 kmh S 6.9 mph11.1 kmh 29.79 in1008.8 mb 0.01 in0.3 mm 0.00 in/hr0.0 mm/hr 2.00 in50.8 mm